Time;durP1;ratioP1;P1;durP2;ratioP2;P2;SDS_P1;SDS_P2;PMS_P1;PMS_P2;Temp;Humidity;BMP_temperature;BMP_pressure;BME280_temperature;BME280_humidity;BME280_pressure;Samples;Min_cycle;Max_cycle;Signal;HPM_P1;HPM_P2
2023/06/13 00:00:10;;;;;;;19.97;15.10;;;;;;;-141.97;98.67;47586.34;5012434;28;20252;-79
2023/06/13 00:02:37;;;;;;;21.13;15.60;;;;;;;-141.97;99.15;47647.84;5013029;28;20163;-79
2023/06/13 00:05:07;;;;;;;20.47;14.93;;;;;;;-141.97;99.18;47613.25;5012434;28;20163;-79
2023/06/13 00:07:37;;;;;;;19.70;15.47;;;;;;;-141.97;99.24;47597.88;5012555;28;20556;-78
2023/06/13 00:10:07;;;;;;;22.57;15.87;;;;;;;-141.97;99.33;47615.19;5012470;28;20655;-78
2023/06/13 00:12:34;;;;;;;20.77;15.73;;;;;;;-141.97;99.39;47638.25;5012522;28;20253;-78
2023/06/13 00:15:01;;;;;;;21.47;15.27;;;;;;;-141.97;99.11;47620.94;5011738;28;20162;-78
2023/06/13 00:17:29;;;;;;;19.97;14.77;;;;;;;-141.97;98.83;47630.56;5011396;28;20721;-78
2023/06/13 00:19:55;;;;;;;17.93;14.30;;;;;;;-141.97;97.96;47634.41;5012305;28;20198;-78
2023/06/13 00:22:21;;;;;;;18.67;14.23;;;;;;;-141.97;95.95;47634.41;5012393;28;20178;-78
2023/06/13 00:24:47;;;;;;;17.37;14.00;;;;;;;-141.97;96.53;47615.19;5012072;28;20250;-78
2023/06/13 00:27:12;;;;;;;18.97;14.13;;;;;;;-141.97;96.06;47611.34;5012142;28;20201;-78
2023/06/13 00:29:38;;;;;;;18.57;14.50;;;;;;;-141.97;96.50;47653.63;5011632;28;20174;-78
2023/06/13 00:32:03;;;;;;;19.63;13.97;;;;;;;-141.97;95.92;47592.13;5012070;28;20187;-78
2023/06/13 00:34:29;;;;;;;19.57;14.50;;;;;;;-141.97;96.06;47620.94;5012186;28;20191;-78
2023/06/13 00:36:55;;;;;;;18.63;14.33;;;;;;;-141.97;94.98;47619.03;5011926;28;20206;-78
2023/06/13 00:39:21;;;;;;;20.60;14.97;;;;;;;-141.97;96.20;47615.19;5011574;28;20693;-78
2023/06/13 00:41:46;;;;;;;19.37;14.97;;;;;;;-141.97;96.13;47620.94;5011774;28;20174;-78
2023/06/13 00:44:12;;;;;;;19.03;14.57;;;;;;;-141.97;94.55;47595.97;5011995;28;20685;-78
2023/06/13 00:46:39;;;;;;;19.30;14.60;;;;;;;-141.97;94.00;47638.25;5011409;28;20226;-78
2023/06/13 00:49:06;;;;;;;17.40;13.47;;;;;;;-141.97;94.06;47619.03;5011901;28;20194;-78
2023/06/13 00:51:35;;;;;;;18.93;14.23;;;;;;;-141.97;94.15;47642.09;5011637;28;20190;-78
2023/06/13 00:54:02;;;;;;;19.93;15.30;;;;;;;-141.97;95.29;47630.56;5010875;28;20178;-77
2023/06/13 00:56:29;;;;;;;20.30;14.87;;;;;;;-141.97;94.85;47649.78;5011788;28;20166;-78
2023/06/13 00:59:01;;;;;;;19.10;14.73;;;;;;;-141.97;94.47;47649.78;5011524;28;20659;-77
2023/06/13 01:01:27;;;;;;;20.47;15.33;;;;;;;-141.97;95.61;47615.19;5011435;28;20183;-76
2023/06/13 01:03:53;;;;;;;21.17;14.80;;;;;;;-141.97;95.03;47640.16;5011322;28;20159;-77
2023/06/13 01:06:19;;;;;;;19.87;14.90;;;;;;;-141.97;94.23;47628.63;5011475;28;20213;-77
2023/06/13 01:08:45;;;;;;;22.27;15.60;;;;;;;-141.97;94.34;47601.72;5011108;28;20206;-77
2023/06/13 01:11:20;;;;;;;23.23;15.27;;;;;;;-141.97;93.65;47682.47;5011158;28;20229;-78
2023/06/13 01:14:01;;;;;;;18.73;15.00;;;;;;;-141.97;93.41;47611.34;5011765;28;20168;-77
2023/06/13 01:16:43;;;;;;;20.90;15.17;;;;;;;-141.97;93.02;47588.28;4994001;28;20186;-77
2023/06/13 01:19:28;;;;;;;23.23;16.30;;;;;;;-141.97;93.27;47615.19;5002785;28;20188;-77
2023/06/13 01:21:56;;;;;;;22.33;16.67;;;;;;;-141.97;93.77;47599.81;5011266;28;20256;-76
2023/06/13 01:24:54;;;;;;;21.50;15.70;;;;;;;-141.97;93.45;47601.72;5011059;28;20186;-77
2023/06/13 01:27:21;;;;;;;22.17;15.80;;;;;;;-141.97;93.69;47622.88;5011709;28;20754;-77
2023/06/13 01:29:47;;;;;;;20.80;16.33;;;;;;;-141.97;93.63;47669.00;5011148;28;20576;-77
2023/06/13 01:32:14;;;;;;;22.23;16.50;;;;;;;-141.97;94.26;47605.56;5011120;28;20170;-78
2023/06/13 01:34:40;;;;;;;22.30;16.10;;;;;;;-141.97;94.04;47576.75;5011432;28;20182;-78
2023/06/13 01:37:07;;;;;;;21.93;17.17;;;;;;;-141.97;94.29;47667.06;5011312;28;20170;-80
2023/06/13 01:39:35;;;;;;;25.83;17.33;;;;;;;-141.97;94.58;47647.84;5011408;28;20198;-79
2023/06/13 01:42:01;;;;;;;25.60;17.90;;;;;;;-141.97;95.08;47601.72;5008390;28;20213;-79
2023/06/13 01:44:28;;;;;;;25.30;17.80;;;;;;;-141.97;95.68;47653.63;5011268;28;20210;-79
2023/06/13 01:47:31;;;;;;;25.57;17.00;;;;;;;-141.97;94.94;47620.94;5010950;28;20229;-79
2023/06/13 01:50:05;;;;;;;22.53;17.20;;;;;;;-141.97;95.48;47655.53;5011070;28;20182;-77
2023/06/13 01:52:52;;;;;;;25.63;18.03;;;;;;;-141.97;95.75;47638.25;5010999;28;20561;-78
2023/06/13 01:55:26;;;;;;;25.27;17.53;;;;;;;-141.97;95.78;47597.88;5011431;28;20182;-78
2023/06/13 01:58:02;;;;;;;25.07;17.57;;;;;;;-141.97;95.91;47615.19;5011160;28;20230;-79
2023/06/13 02:00:29;;;;;;;24.60;18.10;;;;;;;-141.97;95.83;47613.25;5010729;28;20253;-78
2023/06/13 02:02:56;;;;;;;24.33;17.90;;;;;;;-141.97;95.62;47672.84;5011556;28;20309;-77
2023/06/13 02:05:21;;;;;;;24.10;17.97;;;;;;;-141.97;95.72;47622.88;5012610;28;20651;-77
2023/06/13 02:07:46;;;;;;;26.73;18.27;;;;;;;-141.97;95.58;47620.94;5014740;28;20225;-79
2023/06/13 02:10:12;;;;;;;25.93;17.07;;;;;;;-141.97;95.25;47649.78;5014919;28;20174;-79
2023/06/13 02:12:39;;;;;;;23.70;17.93;;;;;;;-141.97;95.04;47669.00;5015195;28;20178;-79
2023/06/13 02:15:08;;;;;;;23.13;17.97;;;;;;;-141.97;95.47;47638.25;5015353;28;20556;-78
2023/06/13 02:17:34;;;;;;;24.73;18.57;;;;;;;-141.97;96.55;47613.25;5013882;28;20167;-78
2023/06/13 02:20:00;;;;;;;26.03;18.73;;;;;;;-141.97;96.90;47745.88;5013582;28;20297;-79
2023/06/13 02:22:25;;;;;;;25.93;19.00;;;;;;;-141.97;96.61;47634.41;5014695;28;20669;-78
2023/06/13 02:24:51;;;;;;;27.43;19.60;;;;;;;-141.97;96.65;47638.25;5014822;28;20175;-79
2023/06/13 02:27:17;;;;;;;27.80;19.23;;;;;;;-141.97;96.40;47659.38;5014517;28;20600;-79
2023/06/13 02:29:44;;;;;;;24.27;18.57;;;;;;;-141.97;96.48;47620.94;5014269;28;20202;-78
2023/06/13 02:32:09;;;;;;;28.03;19.13;;;;;;;-141.97;97.21;47644.00;5013972;28;20252;-78
2023/06/13 02:34:34;;;;;;;27.17;20.43;;;;;;;-141.97;98.10;47638.25;5014129;28;20583;-78
2023/06/13 02:37:00;;;;;;;31.40;20.47;;;;;;;-141.97;98.48;47663.22;5014361;28;20727;-78
2023/06/13 02:39:25;;;;;;;27.67;19.77;;;;;;;-141.97;99.55;47624.78;5014539;28;20198;-77
2023/06/13 02:41:51;;;;;;;30.43;20.40;;;;;;;-141.97;100.00;47630.56;5014029;28;20589;-78
2023/06/13 03:09:41;;;;;;;26.07;16.50;;;;;;;-141.97;98.89;47665.16;4955549;28;20237;-77
2023/06/13 03:12:07;;;;;;;24.37;16.50;;;;;;;-141.97;97.71;47680.53;5013237;28;20587;-77
2023/06/13 03:14:33;;;;;;;24.67;15.93;;;;;;;-141.97;96.80;47661.31;5008623;28;20227;-78
2023/06/13 03:16:59;;;;;;;25.23;16.20;;;;;;;-141.97;96.61;47661.31;5003575;28;20190;-78
2023/06/13 03:19:24;;;;;;;23.13;15.80;;;;;;;-141.97;96.03;47653.63;5012856;28;20286;-78
2023/06/13 03:21:50;;;;;;;20.87;15.80;;;;;;;-141.97;94.15;47843.91;5012990;28;20318;-78
2023/06/13 03:24:15;;;;;;;22.60;15.63;;;;;;;-141.97;93.66;47640.16;5013056;28;20264;-78
2023/06/13 03:26:41;;;;;;;21.23;14.20;;;;;;;-141.97;92.79;47611.34;5013024;28;20167;-79
2023/06/13 03:29:07;;;;;;;20.67;14.20;;;;;;;-141.97;91.91;47665.16;5013522;28;20166;-79
2023/06/13 03:31:32;;;;;;;17.50;13.27;;;;;;;-141.97;90.59;47661.31;5013159;28;20163;-78
2023/06/13 03:33:58;;;;;;;25.07;14.17;;;;;;;-141.97;90.46;47622.88;5013343;28;20167;-77
2023/06/13 03:36:23;;;;;;;17.33;12.50;;;;;;;-141.97;89.88;47626.72;5013372;28;20167;-78
2023/06/13 03:38:50;;;;;;;20.17;13.23;;;;;;;-141.97;89.63;47597.88;5013090;28;20624;-79
2023/06/13 03:41:16;;;;;;;16.80;13.10;;;;;;;-141.97;89.65;47655.53;5013329;28;20264;-79
2023/06/13 03:43:41;;;;;;;21.03;13.83;;;;;;;-141.97;89.99;47659.38;5012012;28;20197;-80
2023/06/13 03:46:06;;;;;;;18.97;13.50;;;;;;;-141.97;89.13;47676.69;5012270;28;20275;-81
2023/06/13 03:48:32;;;;;;;19.13;13.43;;;;;;;-141.97;88.65;47628.63;5012341;28;20167;-80
2023/06/13 03:50:57;;;;;;;23.50;13.63;;;;;;;-141.97;88.31;47665.16;5012499;28;20250;-81
2023/06/13 03:53:23;;;;;;;18.77;13.23;;;;;;;-141.97;87.93;47603.66;5012381;28;20241;-78
2023/06/13 03:55:49;;;;;;;21.67;13.20;;;;;;;-141.97;88.34;47649.78;5012584;28;20198;-77
2023/06/13 03:58:15;;;;;;;18.37;12.83;;;;;;;-141.97;88.60;47672.84;5011393;28;20261;-77
2023/06/13 04:00:42;;;;;;;18.33;14.10;;;;;;;-141.97;87.76;47653.63;5012533;28;20259;-77
2023/06/13 04:03:10;;;;;;;18.50;12.97;;;;;;;-141.97;87.25;47636.31;5012157;28;20242;-77
2023/06/13 04:05:36;;;;;;;22.73;14.73;;;;;;;-141.97;88.08;47632.47;5012408;28;20175;-77
2023/06/13 04:08:03;;;;;;;20.80;13.87;;;;;;;-141.97;87.26;47655.53;5011035;28;20230;-77
2023/06/13 04:10:29;;;;;;;18.77;13.33;;;;;;;-141.97;86.97;47657.47;5011976;28;20179;-78
2023/06/13 04:12:54;;;;;;;18.20;12.57;;;;;;;-141.97;85.94;47665.16;5012433;28;20228;-78
2023/06/13 04:15:20;;;;;;;25.67;13.67;;;;;;;-141.97;87.29;47653.63;5012035;28;20186;-78
2023/06/13 04:17:46;;;;;;;20.73;14.10;;;;;;;-141.97;86.82;47642.09;4978997;28;20198;-79
2023/06/13 04:20:14;;;;;;;31.30;19.23;;;;;;;-141.97;87.64;47672.84;5008304;28;20298;-78
2023/06/13 04:22:41;;;;;;;23.30;14.77;;;;;;;-141.97;88.19;47811.25;5011543;28;20233;-79
2023/06/13 04:25:07;;;;;;;21.87;14.33;;;;;;;-141.97;88.05;47659.38;5011877;28;20175;-78
2023/06/13 04:27:34;;;;;;;18.87;13.33;;;;;;;-141.97;87.32;47638.25;5011483;28;20248;-78
2023/06/13 04:30:00;;;;;;;22.33;15.13;;;;;;;-141.97;86.99;47642.09;5010437;28;20167;-79
2023/06/13 04:32:28;;;;;;;22.80;15.13;;;;;;;-141.97;87.05;47657.47;5011004;28;20185;-79
2023/06/13 04:34:55;;;;;;;24.53;14.83;;;;;;;-141.97;86.54;47747.81;5010771;28;20177;-79
2023/06/13 04:37:26;;;;;;;21.47;13.00;;;;;;;-141.97;86.90;47657.47;5011158;28;20198;-77
2023/06/13 04:39:52;;;;;;;24.63;16.63;;;;;;;-141.97;85.65;47665.16;5010059;28;20355;-78
2023/06/13 04:42:28;;;;;;;20.40;14.03;;;;;;;-141.97;86.69;47665.16;5011212;28;20214;-78
2023/06/13 04:44:56;;;;;;;25.80;16.03;;;;;;;-141.97;86.25;47642.09;5005442;28;20233;-78
2023/06/13 04:47:26;;;;;;;24.67;13.73;;;;;;;-141.97;85.19;47642.09;5010615;28;20178;-78
2023/06/13 04:49:51;;;;;;;21.17;13.03;;;;;;;-141.97;83.63;47657.47;5009189;28;20418;-78
2023/06/13 04:52:18;;;;;;;22.80;14.20;;;;;;;-141.97;85.31;47607.50;5011185;28;20178;-78
2023/06/13 04:54:45;;;;;;;19.57;14.20;;;;;;;-141.97;85.23;47842.00;5010966;28;20175;-78
2023/06/13 04:57:12;;;;;;;22.37;14.10;;;;;;;-141.97;85.32;47626.72;5009512;28;20213;-78
2023/06/13 04:59:39;;;;;;;22.17;14.50;;;;;;;-141.97;84.26;47626.72;5011030;28;20193;-78
2023/06/13 05:02:04;;;;;;;25.33;15.07;;;;;;;-141.97;84.82;47657.47;5010825;28;20166;-78
2023/06/13 05:04:30;;;;;;;22.77;13.67;;;;;;;-141.97;84.46;47657.47;5010831;28;20255;-78
2023/06/13 05:06:57;;;;;;;24.47;13.93;;;;;;;-141.97;84.09;47569.06;5010253;28;20206;-78
2023/06/13 05:09:23;;;;;;;20.67;12.77;;;;;;;-141.97;82.58;47669.00;5010411;28;20218;-78
2023/06/13 05:11:48;;;;;;;23.50;12.73;;;;;;;-141.97;81.80;47642.09;5011682;28;20162;-80
2023/06/13 05:14:14;;;;;;;21.20;13.33;;;;;;;-141.97;82.90;47695.91;5010749;28;20671;-81
2023/06/13 05:16:40;;;;;;;16.20;12.00;;;;;;;-141.97;81.96;47669.00;5009831;28;20202;-79
2023/06/13 05:19:06;;;;;;;21.67;13.13;;;;;;;-141.97;81.60;47661.31;5001223;28;20234;-79
2023/06/13 05:21:34;;;;;;;26.43;12.53;;;;;;;-141.97;81.18;47647.84;5012073;28;20185;-82
2023/06/13 05:24:00;;;;;;;20.10;11.80;;;;;;;-141.97;81.20;47619.03;5007762;28;20160;-83
2023/06/13 05:26:26;;;;;;;23.77;12.67;;;;;;;-141.97;80.98;47651.69;5011213;28;20179;-83
2023/06/13 05:28:51;;;;;;;23.00;12.27;;;;;;;-141.97;80.62;47647.84;5012554;28;20167;-84
2023/06/13 05:31:17;;;;;;;23.37;12.73;;;;;;;-141.97;80.82;47607.50;5011727;28;20190;-83
2023/06/13 05:33:43;;;;;;;21.33;12.53;;;;;;;-141.97;79.88;47595.97;5011943;28;20170;-83
2023/06/13 05:36:08;;;;;;;29.27;12.73;;;;;;;-141.97;79.63;47546.00;5011643;28;20546;-83
2023/06/13 05:38:36;;;;;;;17.03;11.60;;;;;;;-141.97;79.46;47503.69;5012707;28;20623;-83
2023/06/13 05:41:01;;;;;;;18.90;12.57;;;;;;;-141.97;79.67;47561.38;5013829;28;20258;-82
2023/06/13 05:43:27;;;;;;;19.33;12.60;;;;;;;-141.97;80.16;47501.78;5017697;28;20178;-82
2023/06/13 05:45:52;;;;;;;22.93;13.37;;;;;;;-141.97;79.35;47661.31;5016291;28;20175;-83
2023/06/13 05:48:18;;;;;;;24.23;12.40;;;;;;;-141.97;80.17;47665.16;5016799;28;20202;-83
2023/06/13 05:50:43;;;;;;;21.17;13.00;;;;;;;-141.97;79.62;47567.13;5016777;28;20167;-84
2023/06/13 05:53:10;;;;;;;19.40;12.60;;;;;;;-141.97;79.61;47732.44;5016053;28;20516;-83
2023/06/13 05:55:35;;;;;;;17.70;12.10;;;;;;;-141.97;78.30;47667.06;5014015;28;20209;-82
2023/06/13 05:58:00;;;;;;;19.83;12.50;;;;;;;-141.97;78.36;47626.72;5012961;28;20183;-82
2023/06/13 06:00:26;;;;;;;19.93;12.60;;;;;;;-141.97;78.00;47536.38;4999231;28;20284;-83
2023/06/13 06:02:52;;;;;;;25.83;11.90;;;;;;;-141.97;77.97;47799.72;4997526;28;20179;-82
2023/06/13 06:05:19;;;;;;;16.20;12.27;;;;;;;-141.97;78.02;47555.59;5015146;28;20198;-83
2023/06/13 06:07:45;;;;;;;20.00;12.97;;;;;;;-141.97;78.39;47603.66;5014692;28;20178;-83
2023/06/13 06:10:12;;;;;;;19.93;13.33;;;;;;;-141.97;78.53;47651.69;5016213;28;20175;-84
2023/06/13 06:12:37;;;;;;;18.73;13.60;;;;;;;-141.97;78.89;47609.41;5016222;28;20242;-84
2023/06/13 06:15:03;;;;;;;19.00;13.43;;;;;;;-141.97;79.22;47661.31;5011592;28;20227;-83
2023/06/13 06:17:29;;;;;;;19.33;13.60;;;;;;;-141.97;79.03;47549.84;5004735;28;20187;-84
2023/06/13 06:19:54;;;;;;;21.83;13.80;;;;;;;-141.97;78.76;47619.03;5009431;28;20262;-86
2023/06/13 06:22:20;;;;;;;18.43;13.10;;;;;;;-141.97;77.53;47478.72;5024227;28;20173;-87
2023/06/13 06:24:45;;;;;;;19.27;13.00;;;;;;;-141.97;76.41;47551.75;5017217;28;20175;-85
2023/06/13 06:27:11;;;;;;;19.83;12.80;;;;;;;-141.97;74.40;47565.22;5015140;28;20659;-86
2023/06/13 06:29:37;;;;;;;17.33;12.53;;;;;;;-141.97;73.25;47522.91;5016085;28;20171;-85
2023/06/13 06:32:03;;;;;;;17.10;12.90;;;;;;;-141.97;74.58;47726.66;5016127;28;20643;-85
2023/06/13 06:34:28;;;;;;;18.23;13.23;;;;;;;-141.97;73.16;47630.56;5014854;28;20222;-87
2023/06/13 06:36:54;;;;;;;18.40;13.43;;;;;;;-141.97;73.07;47569.06;5016248;28;20658;-85
2023/06/13 06:39:19;;;;;;;18.77;12.87;;;;;;;-141.97;72.30;47463.34;5015703;28;20274;-86
2023/06/13 06:41:45;;;;;;;19.53;13.23;;;;;;;-141.97;73.07;47634.41;5016176;28;20197;-85
2023/06/13 06:44:10;;;;;;;19.87;13.53;;;;;;;-141.97;74.73;47534.44;5016049;28;20174;-86
2023/06/13 06:46:36;;;;;;;21.40;13.57;;;;;;;-141.97;75.53;47628.63;5014548;28;20231;-86
2023/06/13 06:49:02;;;;;;;18.73;13.67;;;;;;;-141.97;75.36;47609.41;5015472;28;20217;-86
2023/06/13 06:51:28;;;;;;;20.63;13.93;;;;;;;-141.97;76.69;47526.75;5014726;28;20158;-86
2023/06/13 06:53:55;;;;;;;21.93;14.23;;;;;;;-141.97;76.59;47670.91;5014786;28;20230;-85
2023/06/13 06:56:21;;;;;;;19.37;13.80;;;;;;;-141.97;75.96;47642.09;5015267;28;20587;-86
2023/06/13 06:58:47;;;;;;;20.17;14.00;;;;;;;-141.97;74.46;47553.69;5015504;28;20182;-86
2023/06/13 07:01:14;;;;;;;18.77;13.37;;;;;;;-141.97;73.98;47476.78;5015635;28;20198;-85
2023/06/13 07:03:40;;;;;;;22.07;13.20;;;;;;;-141.97;73.86;47590.19;5015218;28;20273;-85
2023/06/13 07:06:06;;;;;;;20.00;12.93;;;;;;;-141.97;71.38;47557.53;5015557;28;20198;-85
2023/06/13 07:08:32;;;;;;;19.10;12.37;;;;;;;-141.97;71.57;47665.16;5001119;28;20227;-86
2023/06/13 07:10:57;;;;;;;19.43;11.53;;;;;;;-141.97;70.82;47465.25;4995903;28;20198;-87
2023/06/13 07:13:23;;;;;;;17.30;11.90;;;;;;;-141.97;70.77;47526.75;5003978;28;20707;-86
2023/06/13 07:15:49;;;;;;;17.33;11.87;;;;;;;-141.97;71.48;47569.06;5014862;28;20238;-86
2023/06/13 07:18:14;;;;;;;15.80;11.50;;;;;;;-141.97;71.20;47424.91;5001036;28;20317;-86
2023/06/13 07:20:40;;;;;;;14.97;11.10;;;;;;;-141.97;71.25;47580.59;4994421;28;20608;-86
2023/06/13 07:23:06;;;;;;;13.70;10.63;;;;;;;-141.97;70.08;47449.88;4994527;28;20175;-85
2023/06/13 07:25:32;;;;;;;14.73;10.40;;;;;;;-141.97;68.72;47428.75;5014419;28;20182;-85
2023/06/13 07:27:58;;;;;;;15.83;10.33;;;;;;;-141.97;67.81;47526.75;5014835;28;20595;-85
2023/06/13 07:30:23;;;;;;;15.17;10.23;;;;;;;-141.97;67.93;47551.75;5014510;28;20234;-85
2023/06/13 07:32:50;;;;;;;11.77;9.40;;;;;;;-141.97;66.51;47634.41;5014255;28;20679;-86
2023/06/13 07:35:16;;;;;;;15.37;10.20;;;;;;;-141.97;66.05;47494.09;5014419;28;20193;-85
2023/06/13 07:37:42;;;;;;;13.33;9.97;;;;;;;-141.97;67.41;47461.41;5014539;28;20175;-85
2023/06/13 07:40:08;;;;;;;13.17;9.50;;;;;;;-141.97;66.48;47436.44;5014700;28;20558;-85
2023/06/13 07:42:34;;;;;;;11.53;9.33;;;;;;;-141.97;66.02;47561.38;5015794;28;20171;-84
2023/06/13 07:44:59;;;;;;;10.80;8.97;;;;;;;-141.97;65.17;47745.88;5015156;28;20175;-85
2023/06/13 07:47:25;;;;;;;13.63;9.20;;;;;;;-141.97;65.82;47405.69;5015436;28;20557;-85
2023/06/13 07:49:50;;;;;;;12.00;9.13;;;;;;;-141.97;65.76;47465.25;5012973;28;20550;-85
2023/06/13 07:52:15;;;;;;;13.20;9.53;;;;;;;-141.97;65.18;47503.69;5015467;28;20616;-87
2023/06/13 07:54:41;;;;;;;13.50;9.20;;;;;;;-141.97;65.76;47563.28;5014903;28;21043;-87
2023/06/13 07:57:06;;;;;;;11.37;9.03;;;;;;;-141.97;64.48;47432.59;5015510;28;20178;-86
2023/06/13 07:59:32;;;;;;;11.43;9.03;;;;;;;-141.97;62.17;47538.28;5015635;28;20681;-86
2023/06/13 08:01:58;;;;;;;11.47;9.10;;;;;;;-141.97;61.72;47736.28;5013656;28;20177;-86
2023/06/13 08:04:24;;;;;;;13.40;8.87;;;;;;;-141.97;61.80;47432.59;5013649;28;20274;-85
2023/06/13 08:06:50;;;;;;;13.20;8.70;;;;;;;-141.97;60.96;47576.75;5014315;28;20192;-86
2023/06/13 08:09:16;;;;;;;12.50;9.13;;;;;;;-141.97;62.21;47465.25;5014682;28;20210;-86
2023/06/13 08:11:41;;;;;;;11.23;9.00;;;;;;;-141.97;60.15;47561.38;5013714;28;20241;-86
2023/06/13 08:14:08;;;;;;;14.90;9.47;;;;;;;-141.97;60.74;47534.44;5012473;28;20175;-86
2023/06/13 08:16:36;;;;;;;13.50;10.17;;;;;;;-141.97;60.44;47572.91;5013236;28;20551;-85
2023/06/13 08:19:03;;;;;;;14.33;10.57;;;;;;;-141.97;58.66;47720.91;5004598;28;20684;-86
2023/06/13 08:21:29;;;;;;;17.97;8.80;;;;;;;-141.97;58.56;47795.88;5012273;28;20686;-86
2023/06/13 08:23:55;;;;;;;12.90;9.07;;;;;;;-141.97;59.40;47407.59;5013047;28;20269;-86
2023/06/13 08:26:22;;;;;;;12.90;9.80;;;;;;;-141.97;59.82;47599.81;5014037;28;20202;-86
2023/06/13 08:28:48;;;;;;;11.70;9.20;;;;;;;-141.97;59.37;47561.38;5015845;28;20154;-86
2023/06/13 08:31:17;;;;;;;13.03;9.53;;;;;;;-141.97;60.05;47438.34;5014306;28;20174;-85
2023/06/13 08:33:42;;;;;;;13.83;8.80;;;;;;;-141.97;59.76;47588.28;5013480;28;20175;-86
2023/06/13 08:36:08;;;;;;;11.60;8.87;;;;;;;-141.97;60.56;47611.34;5013405;28;20178;-86
2023/06/13 08:38:33;;;;;;;12.60;9.37;;;;;;;-141.97;59.90;47572.91;5012664;28;20266;-87
2023/06/13 08:40:59;;;;;;;11.23;9.27;;;;;;;-141.97;58.09;47336.50;5014384;28;20266;-86
2023/06/13 08:43:25;;;;;;;12.13;8.93;;;;;;;-141.97;58.67;47476.78;5013606;28;20251;-86
2023/06/13 08:45:51;;;;;;;12.07;9.40;;;;;;;-141.97;59.89;47776.63;5019467;28;20263;-87
2023/06/13 08:48:16;;;;;;;10.60;9.03;;;;;;;-141.97;59.53;47415.28;5016640;28;20181;-86
2023/06/13 08:50:43;;;;;;;12.47;9.37;;;;;;;-141.97;59.00;47682.47;5014005;28;20168;-85
2023/06/13 08:53:13;;;;;;;12.20;9.33;;;;;;;-141.97;58.73;47496.00;5013011;28;20159;-85
2023/06/13 08:55:41;;;;;;;11.35;9.63;;;;;;;-141.97;57.75;47494.09;5012463;28;20558;-85
2023/06/13 08:58:09;;;;;;;12.77;8.97;;;;;;;-141.97;57.43;47784.34;5012328;28;20670;-86
2023/06/13 09:00:35;;;;;;;13.40;9.32;;;;;;;-141.97;57.36;47759.34;5013019;28;20273;-86
2023/06/13 09:03:04;;;;;;;12.57;9.85;;;;;;;-141.97;57.98;47534.44;5017798;28;20224;-86
2023/06/13 09:05:30;;;;;;;10.70;9.57;;;;;;;-141.97;57.66;47538.28;5010115;28;20185;-86
2023/06/13 09:07:58;;;;;;;12.13;8.90;;;;;;;-141.97;56.57;47438.34;4996807;28;20998;-84
2023/06/13 09:10:24;;;;;;;11.32;9.02;;;;;;;-141.97;54.95;47565.22;4993178;28;20170;-87
2023/06/13 09:12:51;;;;;;;10.50;8.95;;;;;;;-141.97;54.16;47288.44;4997131;28;20266;-86
2023/06/13 09:15:16;;;;;;;11.23;8.40;;;;;;;-141.97;54.22;47373.00;5011733;28;20196;-85
2023/06/13 09:17:42;;;;;;;11.63;8.50;;;;;;;-141.97;54.59;47711.28;5008554;28;20647;-87
2023/06/13 09:20:08;;;;;;;10.70;8.02;;;;;;;-141.97;54.37;47692.06;4984652;28;20697;-86
2023/06/13 09:22:35;;;;;;;9.80;8.00;;;;;;;-141.97;52.64;47569.06;4993598;28;20173;-86
2023/06/13 09:25:04;;;;;;;9.88;7.43;;;;;;;-141.97;52.74;47672.84;5005630;28;20180;-86
2023/06/13 09:27:29;;;;;;;8.82;7.40;;;;;;;-141.97;53.09;47576.75;4996365;28;20179;-85
2023/06/13 09:29:59;;;;;;;11.15;7.90;;;;;;;-141.97;54.47;47409.53;5010942;28;20227;-85
2023/06/13 09:32:25;;;;;;;11.30;8.32;;;;;;;-141.97;54.74;47230.78;5013265;28;20178;-85
2023/06/13 09:34:51;;;;;;;13.18;8.90;;;;;;;-141.97;53.88;47619.03;5012835;28;20199;-85
2023/06/13 09:37:17;;;;;;;9.40;8.05;;;;;;;-141.97;53.15;47678.63;5011804;28;20263;-86
2023/06/13 09:39:47;;;;;;;9.35;8.00;;;;;;;-141.97;54.16;47584.44;5011840;28;20226;-86
2023/06/13 09:42:13;;;;;;;14.20;8.20;;;;;;;-141.97;53.53;47532.53;5013287;28;20172;-85
2023/06/13 09:44:38;;;;;;;9.80;8.10;;;;;;;-141.97;53.46;47315.34;5011241;28;20184;-85
2023/06/13 09:47:04;;;;;;;10.75;7.60;;;;;;;-141.97;51.99;47649.78;5010633;28;20203;-86
2023/06/13 09:49:33;;;;;;;13.73;7.10;;;;;;;-141.97;51.59;47396.06;5012246;28;20181;-87
2023/06/13 09:52:01;;;;;;;9.68;7.22;;;;;;;-141.97;51.79;47311.50;5012886;28;20181;-87
2023/06/13 09:54:31;;;;;;;13.85;7.55;;;;;;;-141.97;52.93;47695.91;5012894;28;20188;-85
2023/06/13 09:56:56;;;;;;;9.93;7.43;;;;;;;-141.97;54.64;47726.66;5012504;28;20178;-86
2023/06/13 09:59:22;;;;;;;12.32;8.00;;;;;;;-141.97;54.51;47319.19;5013044;28;20173;-87
2023/06/13 10:01:48;;;;;;;12.07;7.45;;;;;;;-141.97;53.53;47597.88;5012998;28;20174;-87
2023/06/13 10:04:14;;;;;;;9.32;7.25;;;;;;;-141.97;52.94;47522.91;5013766;28;20194;-86
2023/06/13 10:06:39;;;;;;;9.48;7.57;;;;;;;-141.97;51.85;47569.06;5011541;28;20182;-86
2023/06/13 10:09:05;;;;;;;8.50;7.07;;;;;;;-141.97;51.71;47799.72;5013834;28;20227;-86
2023/06/13 10:11:35;;;;;;;7.97;7.18;;;;;;;-141.97;51.19;47457.56;5013459;28;20618;-87
2023/06/13 10:14:22;;;;;;;7.80;7.00;;;;;;;-141.97;49.87;47626.72;5012473;28;20711;-87
2023/06/13 10:16:53;;;;;;;8.80;7.20;;;;;;;-141.97;50.12;47428.75;5014404;28;20228;-86
2023/06/13 10:19:20;;;;;;;8.73;7.20;;;;;;;-141.97;49.05;47563.28;5002708;28;20317;-86
2023/06/13 10:21:47;;;;;;;9.18;7.00;;;;;;;-141.97;48.26;47530.59;5013255;28;20273;-86
2023/06/13 10:24:16;;;;;;;13.05;7.80;;;;;;;-141.97;48.21;47369.16;5011821;28;20622;-86
2023/06/13 10:26:43;;;;;;;11.02;7.13;;;;;;;-141.97;48.33;47540.22;5013532;28;20175;-86
2023/06/13 10:29:31;;;;;;;8.82;7.70;;;;;;;-141.97;48.72;47534.44;5014932;28;20177;-85
2023/06/13 10:32:17;;;;;;;10.82;7.18;;;;;;;-141.97;49.08;47547.91;5016413;28;20190;-86
2023/06/13 10:35:16;;;;;;;9.05;7.00;;;;;;;-141.97;48.45;47559.44;5014712;28;20174;-86
2023/06/13 10:38:21;;;;;;;8.65;7.43;;;;;;;-141.97;48.10;47546.00;5016134;28;20548;-86
2023/06/13 10:41:04;;;;;;;7.32;6.50;;;;;;;-141.97;46.18;47480.63;5015024;28;20190;-86
2023/06/13 10:43:38;;;;;;;9.07;6.65;;;;;;;-141.97;46.75;47692.06;5014575;28;20276;-84
2023/06/13 10:46:06;;;;;;;9.70;7.25;;;;;;;-141.97;47.46;47499.84;5014821;28;20624;-86
2023/06/13 10:48:52;;;;;;;8.10;7.13;;;;;;;-141.97;46.90;47497.94;5016977;28;20166;-86
2023/06/13 10:51:25;;;;;;;10.10;6.88;;;;;;;-141.97;45.74;47519.06;5016585;28;20349;-88
2023/06/13 10:54:12;;;;;;;8.48;6.97;;;;;;;-141.97;45.41;47509.47;5016746;28;20175;-87
2023/06/13 10:56:41;;;;;;;10.80;7.22;;;;;;;-141.97;45.15;47738.19;5016235;28;20537;-87
2023/06/13 10:59:11;;;;;;;8.75;6.90;;;;;;;-141.97;45.03;47434.50;5016366;28;20194;-87
2023/06/13 11:01:40;;;;;;;12.90;7.13;;;;;;;-141.97;45.70;47359.56;5016514;28;20166;-87
2023/06/13 11:04:13;;;;;;;12.35;7.00;;;;;;;-141.97;44.97;47669.00;5016581;28;20170;-85
2023/06/13 11:06:41;;;;;;;11.10;7.05;;;;;;;-141.97;45.84;47507.53;5015913;28;20184;-86
2023/06/13 11:09:21;;;;;;;8.38;6.97;;;;;;;-141.97;45.66;47538.28;5020210;28;20240;-87
2023/06/13 11:11:49;;;;;;;9.43;6.82;;;;;;;-141.97;45.46;47480.63;5018537;28;20154;-85
2023/06/13 11:14:19;;;;;;;8.27;6.60;;;;;;;-141.97;44.02;47478.72;5015912;28;20181;-87
2023/06/13 11:16:45;;;;;;;8.40;6.80;;;;;;;-141.97;43.61;47359.56;5015673;28;20224;-88
2023/06/13 11:19:16;;;;;;;10.63;6.65;;;;;;;-141.97;44.43;47672.84;5001789;28;20265;-87
2023/06/13 11:21:46;;;;;;;8.10;6.55;;;;;;;-141.97;43.57;47515.22;5013679;28;20296;-85
2023/06/13 11:24:16;;;;;;;10.07;6.57;;;;;;;-141.97;43.79;47718.97;5013572;28;20221;-86
2023/06/13 11:26:45;;;;;;;10.15;6.68;;;;;;;-141.97;44.22;47538.28;5016465;28;20174;-87
2023/06/13 11:29:12;;;;;;;7.82;6.70;;;;;;;-141.97;43.04;47653.63;5020812;28;20269;-85
2023/06/13 11:31:39;;;;;;;8.52;7.05;;;;;;;-141.97;43.71;47465.25;5020156;28;20188;-86